Time;durP1;ratioP1;P1;durP2;ratioP2;P2;SDS_P1;SDS_P2;PMS_P1;PMS_P2;Temp;Humidity;BMP_temperature;BMP_pressure;BME280_temperature;BME280_humidity;BME280_pressure;Samples;Min_cycle;Max_cycle;Signal;HPM_P1;HPM_P2
2024/01/22 00:01:21;;;;;;;8.02;2.72;;;;;;;6.27;100.00;100599.91;7395681;19;19922;-76
2024/01/22 00:03:50;;;;;;;5.47;2.20;;;;;;;6.29;100.00;100605.13;7396702;19;19918;-77
2024/01/22 00:06:20;;;;;;;4.53;1.95;;;;;;;6.32;100.00;100611.00;7394698;19;20283;-77
2024/01/22 00:08:49;;;;;;;5.57;2.47;;;;;;;6.35;100.00;100605.31;7397622;19;19919;-77
2024/01/22 00:11:19;;;;;;;6.97;3.22;;;;;;;6.40;100.00;100607.53;7395091;19;19927;-77
2024/01/22 00:13:48;;;;;;;6.50;2.20;;;;;;;6.43;100.00;100619.78;7396068;19;19929;-77
2024/01/22 00:16:20;;;;;;;7.88;2.45;;;;;;;6.49;100.00;100576.31;7395496;19;20251;-77
2024/01/22 00:18:50;;;;;;;5.88;2.53;;;;;;;6.50;100.00;100596.72;7393892;19;19925;-77
2024/01/22 00:21:19;;;;;;;4.05;2.03;;;;;;;6.51;100.00;100544.91;7396961;19;19923;-77
2024/01/22 00:23:49;;;;;;;4.88;2.30;;;;;;;6.54;100.00;100572.16;7395057;19;19938;-77
2024/01/22 00:26:18;;;;;;;4.22;1.85;;;;;;;6.52;100.00;100536.69;7396410;19;19918;-77
2024/01/22 00:28:47;;;;;;;7.38;2.70;;;;;;;6.58;100.00;100535.22;7398298;19;19923;-77
2024/01/22 00:31:20;;;;;;;4.93;2.40;;;;;;;6.59;100.00;100521.69;7400640;19;19918;-77
2024/01/22 00:33:49;;;;;;;;;;;;;;;6.62;100.00;100552.63;7401909;19;20271;-76
2024/01/22 00:36:18;;;;;;;9.65;3.05;;;;;;;6.63;100.00;100506.16;7399849;19;19926;-77
2024/01/22 00:38:48;;;;;;;6.57;2.50;;;;;;;6.63;100.00;100495.44;7397837;19;19919;-77
2024/01/22 00:41:17;;;;;;;7.07;2.38;;;;;;;6.65;100.00;100474.69;7400438;19;19922;-77
2024/01/22 00:43:47;;;;;;;4.28;2.75;;;;;;;6.65;100.00;100451.44;7399194;19;19914;-77
2024/01/22 00:46:16;;;;;;;5.10;2.40;;;;;;;6.75;100.00;100481.59;7401006;19;19914;-77
2024/01/22 00:48:48;;;;;;;5.57;3.05;;;;;;;6.75;100.00;100424.53;7399053;19;19942;-76
2024/01/22 00:51:18;;;;;;;3.47;2.05;;;;;;;6.75;100.00;100425.38;7400364;19;20018;-76
2024/01/22 00:53:47;;;;;;;4.95;2.40;;;;;;;6.77;100.00;100428.72;7399287;19;20018;-76
2024/01/22 00:56:16;;;;;;;5.82;2.00;;;;;;;6.84;100.00;100426.25;7398831;19;19923;-77
2024/01/22 00:58:46;;;;;;;3.80;2.58;;;;;;;6.86;100.00;100468.94;7401483;19;19914;-76
2024/01/22 01:01:15;;;;;;;7.82;3.33;;;;;;;6.90;100.00;100449.69;7398448;19;19930;-75
2024/01/22 01:03:47;;;;;;;3.58;2.00;;;;;;;6.94;100.00;100507.28;7400765;19;19923;-75
2024/01/22 01:06:18;;;;;;;5.13;2.15;;;;;;;6.97;100.00;100501.59;7398565;19;20014;-76
2024/01/22 01:08:47;;;;;;;4.45;2.28;;;;;;;7.02;100.00;100469.81;7400403;19;19926;-76
2024/01/22 01:11:16;;;;;;;4.43;2.17;;;;;;;7.05;100.00;100490.06;7394643;19;19926;-76
2024/01/22 01:13:46;;;;;;;6.03;2.75;;;;;;;7.05;100.00;100472.16;7399350;19;20331;-76
2024/01/22 01:16:15;;;;;;;6.72;2.20;;;;;;;7.05;100.00;100474.81;7399397;19;20311;-76
2024/01/22 01:18:47;;;;;;;4.05;2.17;;;;;;;7.07;100.00;100454.09;7399594;19;19919;-76
2024/01/22 01:21:17;;;;;;;3.75;1.98;;;;;;;7.07;100.00;100446.06;7399505;19;19941;-76
2024/01/22 01:23:46;;;;;;;5.25;2.25;;;;;;;7.10;100.00;100447.56;7399767;19;19919;-76
2024/01/22 01:26:16;;;;;;;5.35;2.13;;;;;;;7.11;100.00;100428.66;7399142;19;19922;-76
2024/01/22 01:28:45;;;;;;;3.88;2.22;;;;;;;7.15;100.00;100421.97;7398212;19;19926;-76
2024/01/22 01:31:15;;;;;;;6.97;2.50;;;;;;;7.12;100.00;100416.91;7399962;19;19924;-76
2024/01/22 01:33:44;;;;;;;5.38;2.13;;;;;;;7.14;100.00;100446.22;7399674;19;19922;-76
2024/01/22 01:36:16;;;;;;;4.38;2.15;;;;;;;7.15;100.00;100397.84;7399868;19;19933;-76
2024/01/22 01:38:46;;;;;;;4.18;2.20;;;;;;;7.15;100.00;100415.75;7396113;19;19918;-76
2024/01/22 01:41:15;;;;;;;3.63;2.00;;;;;;;7.15;100.00;100411.25;7397866;19;20370;-76
2024/01/22 01:43:45;;;;;;;5.18;2.25;;;;;;;7.18;100.00;100388.63;7399482;19;19986;-76
2024/01/22 01:46:14;;;;;;;5.93;2.50;;;;;;;7.18;100.00;100365.34;7398783;19;20271;-76
2024/01/22 01:48:43;;;;;;;4.40;2.45;;;;;;;7.21;100.00;100389.13;7398608;19;19925;-76
2024/01/22 01:51:12;;;;;;;6.57;2.65;;;;;;;7.25;100.00;100374.38;7399675;19;19918;-75
2024/01/22 01:53:45;;;;;;;4.85;2.45;;;;;;;7.29;100.00;100378.41;7397640;19;19926;-76
2024/01/22 01:56:14;;;;;;;4.47;2.70;;;;;;;7.28;100.00;100374.06;7399984;19;19918;-76
2024/01/22 01:58:43;;;;;;;4.93;1.90;;;;;;;7.27;100.00;100382.28;7399949;19;19926;-76
2024/01/22 02:01:11;;;;;;;3.25;2.00;;;;;;;7.29;100.00;100375.72;7397062;19;19919;-77
2024/01/22 02:03:41;;;;;;;5.60;2.35;;;;;;;7.30;100.00;100398.84;7397869;19;19922;-77
2024/01/22 02:06:11;;;;;;;7.38;2.60;;;;;;;7.30;100.00;100371.22;7399463;19;20631;-77
2024/01/22 02:08:39;;;;;;;5.18;2.00;;;;;;;7.27;100.00;100361.69;7400025;19;20202;-77
2024/01/22 02:11:10;;;;;;;5.20;2.47;;;;;;;7.32;100.00;100357.66;7398639;19;19919;-77
2024/01/22 02:13:39;;;;;;;4.72;2.05;;;;;;;7.34;100.00;100343.06;7397652;19;19930;-77
2024/01/22 02:16:09;;;;;;;5.13;2.58;;;;;;;7.38;100.00;100314.13;7398865;19;19937;-77
2024/01/22 02:18:37;;;;;;;3.80;2.53;;;;;;;7.42;100.00;100331.53;7399609;19;19927;-77
2024/01/22 02:21:07;;;;;;;6.03;2.25;;;;;;;7.44;100.00;100337.53;7398856;19;19922;-77
2024/01/22 02:23:39;;;;;;;6.85;2.42;;;;;;;7.46;100.00;100306.06;7400911;19;19918;-78
2024/01/22 02:26:07;;;;;;;;;;;;;;;7.48;100.00;100293.31;7401523;19;19938;-77
2024/01/22 02:28:36;;;;;;;5.40;2.22;;;;;;;7.50;100.00;100315.44;7400042;19;19930;-78
2024/01/22 02:31:07;;;;;;;4.60;2.33;;;;;;;7.52;100.00;100282.06;7400456;19;19918;-78
2024/01/22 02:33:38;;;;;;;4.40;2.35;;;;;;;7.56;100.00;100287.94;7398617;19;19931;-77
2024/01/22 02:36:08;;;;;;;3.80;2.22;;;;;;;7.56;100.00;100255.75;7399716;19;19926;-77
2024/01/22 02:38:39;;;;;;;4.63;2.13;;;;;;;7.56;100.00;100269.16;7398216;19;19930;-77
2024/01/22 02:41:08;;;;;;;4.72;2.63;;;;;;;7.55;100.00;100275.56;7399064;19;19930;-77
2024/01/22 02:43:37;;;;;;;2.55;1.92;;;;;;;7.55;100.00;100264.84;7396648;19;20280;-78
2024/01/22 02:46:06;;;;;;;5.53;2.28;;;;;;;7.59;100.00;100239.34;7398866;19;20024;-77
2024/01/22 02:48:35;;;;;;;4.60;1.90;;;;;;;7.64;100.00;100240.47;7397887;19;19919;-77
2024/01/22 02:51:10;;;;;;;3.28;1.77;;;;;;;7.70;100.00;100237.13;7399262;19;19921;-78
2024/01/22 02:53:42;;;;;;;6.10;2.13;;;;;;;7.74;100.00;100267.09;7398041;19;19930;-77
2024/01/22 02:56:12;;;;;;;2.17;1.63;;;;;;;7.81;100.00;100208.25;7397938;19;19926;-77
2024/01/22 02:58:41;;;;;;;6.45;2.05;;;;;;;7.85;100.00;100194.34;7398833;19;19918;-77
2024/01/22 03:01:11;;;;;;;3.35;1.95;;;;;;;7.86;100.00;100235.38;7398092;19;19922;-77
2024/01/22 03:03:40;;;;;;;6.63;2.22;;;;;;;7.91;100.00;100193.59;7398378;19;19921;-77
2024/01/22 03:06:10;;;;;;;4.35;2.25;;;;;;;7.94;100.00;100198.59;7396230;19;19937;-77
2024/01/22 03:08:42;;;;;;;4.57;2.20;;;;;;;8.00;100.00;100170.25;7398434;19;20475;-77
2024/01/22 03:11:10;;;;;;;4.40;2.03;;;;;;;7.95;100.00;100240.53;7396019;19;19978;-77
2024/01/22 03:13:39;;;;;;;4.80;2.03;;;;;;;7.99;100.00;100147.97;7399830;19;19922;-77
2024/01/22 03:16:08;;;;;;;6.47;2.17;;;;;;;7.99;100.00;100160.53;7398294;19;19925;-78
2024/01/22 03:18:37;;;;;;;6.25;2.08;;;;;;;8.01;100.00;100142.44;7396147;19;19922;-77
2024/01/22 03:21:07;;;;;;;7.15;2.00;;;;;;;8.00;100.00;100146.13;7398231;19;19939;-77
2024/01/22 03:23:36;;;;;;;2.33;1.70;;;;;;;8.03;100.00;100127.81;7396855;19;19963;-77
2024/01/22 03:26:07;;;;;;;3.20;1.92;;;;;;;8.06;100.00;100154.31;7397804;19;20032;-77
2024/01/22 03:28:36;;;;;;;3.60;2.00;;;;;;;8.04;100.00;100116.06;7398559;19;19923;-77
2024/01/22 03:31:04;;;;;;;3.15;1.65;;;;;;;8.04;100.00;100118.75;7397690;19;20374;-77
2024/01/22 03:33:33;;;;;;;2.92;1.67;;;;;;;8.04;100.00;100118.75;7396942;19;19922;-78
2024/01/22 03:36:02;;;;;;;3.58;1.70;;;;;;;8.10;100.00;100109.19;7396623;19;19941;-77
2024/01/22 03:38:30;;;;;;;2.72;1.60;;;;;;;8.05;100.00;100120.44;7395931;19;19946;-77
2024/01/22 03:40:59;;;;;;;5.97;2.33;;;;;;;8.06;100.00;100097.13;7396376;19;19926;-77
2024/01/22 03:43:30;;;;;;;3.55;2.20;;;;;;;8.13;100.00;100092.72;7396244;19;19930;-77
2024/01/22 03:45:59;;;;;;;3.25;1.83;;;;;;;8.10;100.00;100080.50;7396973;19;19922;-77
2024/01/22 03:48:27;;;;;;;4.72;1.63;;;;;;;8.07;100.00;100083.53;7395301;19;19919;-77
2024/01/22 03:50:56;;;;;;;4.85;2.20;;;;;;;8.12;100.00;100097.25;7394260;19;19926;-77
2024/01/22 03:53:25;;;;;;;3.67;1.77;;;;;;;8.15;100.00;100088.00;7397002;19;19942;-77
2024/01/22 03:55:54;;;;;;;3.05;1.90;;;;;;;8.11;100.00;100078.66;7397114;19;20613;-77
2024/01/22 03:58:23;;;;;;;2.58;1.60;;;;;;;8.11;100.00;100087.50;7397269;19;20343;-77
2024/01/22 04:00:54;;;;;;;4.60;1.98;;;;;;;8.12;100.00;100075.78;7397442;19;19922;-77
2024/01/22 04:03:23;;;;;;;2.85;1.50;;;;;;;8.10;100.00;100068.94;7393933;19;19923;-77
2024/01/22 04:05:52;;;;;;;2.28;1.52;;;;;;;8.06;100.00;100089.94;7396809;19;19926;-77
2024/01/22 04:08:21;;;;;;;5.00;2.00;;;;;;;8.03;100.00;100076.84;7395905;19;19925;-77
2024/01/22 04:10:50;;;;;;;3.33;1.60;;;;;;;8.00;100.00;100061.13;7396709;19;19922;-78
2024/01/22 04:13:21;;;;;;;5.22;2.03;;;;;;;8.02;100.00;100072.53;7395941;19;19926;-77
2024/01/22 04:15:54;;;;;;;2.42;1.77;;;;;;;8.03;100.00;100063.44;7395501;19;19930;-77
2024/01/22 04:18:25;;;;;;;5.53;2.22;;;;;;;8.08;100.00;100055.69;7395695;19;19989;-78
2024/01/22 04:20:53;;;;;;;3.78;2.05;;;;;;;8.11;100.00;100066.06;7395943;19;19914;-77
2024/01/22 04:23:22;;;;;;;5.18;1.70;;;;;;;8.11;100.00;100036.53;7396328;19;19937;-77
2024/01/22 04:25:51;;;;;;;2.38;1.48;;;;;;;8.15;100.00;100042.41;7395955;19;20283;-77
2024/01/22 04:28:19;;;;;;;2.58;1.42;;;;;;;8.15;100.00;100023.63;7396237;19;19922;-77
2024/01/22 04:30:48;;;;;;;3.67;1.30;;;;;;;8.15;100.00;100037.84;7396739;19;19922;-77
2024/01/22 04:33:17;;;;;;;3.78;1.70;;;;;;;8.17;100.00;100029.63;7393313;19;19918;-78
2024/01/22 04:35:48;;;;;;;4.78;1.58;;;;;;;8.19;100.00;100055.28;7393497;19;19918;-77
2024/01/22 04:38:17;;;;;;;3.50;1.50;;;;;;;8.21;100.00;100015.66;7395544;19;19925;-77
2024/01/22 04:40:45;;;;;;;3.40;1.63;;;;;;;8.28;100.00;100023.00;7396010;19;19919;-77
2024/01/22 04:43:14;;;;;;;2.13;1.40;;;;;;;8.29;100.00;100024.63;7395588;19;19944;-77
2024/01/22 04:45:43;;;;;;;2.25;1.75;;;;;;;8.30;100.00;100004.88;7395824;19;19926;-78
2024/01/22 04:48:11;;;;;;;2.50;1.65;;;;;;;8.29;100.00;100004.03;7392750;19;19939;-77
2024/01/22 04:50:40;;;;;;;3.20;1.50;;;;;;;8.30;100.00;100004.88;7395544;19;19918;-77
2024/01/22 04:53:11;;;;;;;2.90;1.20;;;;;;;8.31;100.00;100019.97;7393833;19;19922;-77
2024/01/22 04:55:40;;;;;;;2.00;1.38;;;;;;;8.33;100.00;99991.09;7395833;19;19922;-78
2024/01/22 04:58:09;;;;;;;2.72;1.30;;;;;;;8.34;100.00;100001.66;7393741;19;19922;-78
2024/01/22 05:00:38;;;;;;;2.28;1.42;;;;;;;8.35;100.00;99997.13;7394557;19;19940;-77
2024/01/22 05:03:07;;;;;;;2.33;1.10;;;;;;;8.35;100.00;100007.84;7392902;19;19950;-78
2024/01/22 05:05:36;;;;;;;2.60;1.25;;;;;;;8.38;100.00;100005.63;7393879;19;20639;-78
2024/01/22 05:08:05;;;;;;;1.85;1.30;;;;;;;8.40;100.00;99998.25;7391451;19;20307;-78
2024/01/22 05:10:36;;;;;;;1.35;0.93;;;;;;;8.42;100.00;99996.19;7394143;19;19931;-78
2024/01/22 05:13:05;;;;;;;1.63;1.40;;;;;;;8.47;100.00;99993.78;7394742;19;19927;-77
2024/01/22 05:15:34;;;;;;;5.90;2.45;;;;;;;8.45;100.00;99992.31;7398387;19;20644;-78
2024/01/22 05:18:04;;;;;;;2.13;1.10;;;;;;;8.51;100.00;99980.81;7400375;19;19919;-77
2024/01/22 05:20:33;;;;;;;1.75;1.00;;;;;;;8.50;100.00;100004.16;7398318;19;19919;-78
2024/01/22 05:23:03;;;;;;;2.78;1.65;;;;;;;8.56;100.00;99994.53;7401188;19;20301;-77
2024/01/22 05:25:32;;;;;;;1.13;0.90;;;;;;;8.55;100.00;99971.38;7400381;19;20545;-77
2024/01/22 05:28:04;;;;;;;2.25;1.25;;;;;;;8.56;100.00;99979.25;7400325;19;19923;-77
2024/01/22 05:30:34;;;;;;;2.70;1.30;;;;;;;8.55;100.00;99988.31;7399690;19;19930;-78
2024/01/22 05:33:03;;;;;;;1.40;0.80;;;;;;;8.57;100.00;99988.16;7401589;19;19982;-77
2024/01/22 05:35:31;;;;;;;1.77;1.25;;;;;;;8.61;100.00;99976.84;7400890;19;20490;-77
2024/01/22 05:38:00;;;;;;;1.55;1.00;;;;;;;8.64;100.00;99979.16;7400749;19;19923;-77
2024/01/22 05:40:28;;;;;;;1.95;1.00;;;;;;;8.70;100.00;99977.59;7401492;19;20701;-78
2024/01/22 05:42:57;;;;;;;4.05;1.25;;;;;;;8.74;100.00;99954.72;7399202;19;19919;-78
2024/01/22 05:45:29;;;;;;;3.28;1.13;;;;;;;8.81;100.00;99944.88;7399741;19;19950;-78
2024/01/22 05:47:57;;;;;;;1.98;1.10;;;;;;;8.87;100.00;99975.53;7400454;19;20272;-77
2024/01/22 05:50:26;;;;;;;2.75;1.02;;;;;;;8.91;100.00;99990.25;7399529;19;19923;-77
2024/01/22 05:52:55;;;;;;;1.38;1.10;;;;;;;8.96;100.00;99975.25;7399614;19;19915;-77
2024/01/22 05:55:24;;;;;;;2.35;0.90;;;;;;;9.04;100.00;99972.44;7398886;19;19923;-76
2024/01/22 05:57:53;;;;;;;1.50;0.90;;;;;;;9.11;100.00;99949.16;7397915;19;19922;-76
2024/01/22 06:00:22;;;;;;;1.27;0.80;;;;;;;9.16;100.00;99959.34;7399090;19;19919;-76
2024/01/22 06:02:54;;;;;;;2.15;1.33;;;;;;;9.25;100.00;99973.47;7398681;19;19923;-77
2024/01/22 06:05:23;;;;;;;3.20;1.10;;;;;;;9.28;100.00;99951.59;7399573;19;20842;-77
2024/01/22 06:07:51;;;;;;;1.70;0.88;;;;;;;9.30;100.00;99971.91;7397006;19;19976;-77
2024/01/22 06:10:20;;;;;;;3.25;1.00;;;;;;;9.35;100.00;99963.25;7399267;19;19946;-77
2024/01/22 06:12:48;;;;;;;2.55;1.17;;;;;;;9.38;100.00;99949.44;7397705;19;19930;-77
2024/01/22 06:15:17;;;;;;;1.48;0.82;;;;;;;9.44;100.00;99962.97;7399179;19;20392;-77
2024/01/22 06:17:46;;;;;;;1.23;0.80;;;;;;;9.46;100.00;99950.13;7399120;19;19922;-77
2024/01/22 06:20:17;;;;;;;2.88;0.80;;;;;;;9.47;100.00;99948.28;7399250;19;20265;-77
2024/01/22 06:22:46;;;;;;;1.80;1.10;;;;;;;9.50;100.00;99942.50;7398520;19;19950;-77
2024/01/22 06:25:15;;;;;;;0.70;0.60;;;;;;;9.51;100.00;99931.56;7396697;19;19930;-77
2024/01/22 06:27:44;;;;;;;2.35;1.02;;;;;;;9.58;100.00;99953.97;7398990;19;20649;-77
2024/01/22 06:30:15;;;;;;;1.05;0.60;;;;;;;9.64;100.00;99947.00;7398914;19;19915;-77
2024/01/22 06:32:44;;;;;;;2.42;1.00;;;;;;;9.66;100.00;99944.97;7399362;19;19918;-77
2024/01/22 06:35:16;;;;;;;2.95;1.30;;;;;;;9.68;100.00;99934.81;7398355;19;19919;-77
2024/01/22 06:37:46;;;;;;;1.95;1.00;;;;;;;9.75;100.00;99932.19;7398372;19;19922;-78
2024/01/22 06:40:16;;;;;;;3.72;0.65;;;;;;;9.74;100.00;99957.44;7397731;19;19922;-78
2024/01/22 06:42:46;;;;;;;2.38;0.88;;;;;;;9.76;100.00;99964.28;7397464;19;20271;-78
2024/01/22 06:45:15;;;;;;;1.73;1.00;;;;;;;9.77;100.00;99974.00;7398429;19;20259;-78
2024/01/22 06:47:44;;;;;;;1.88;0.90;;;;;;;9.77;100.00;99947.09;7398397;19;19919;-78
2024/01/22 06:50:17;;;;;;;2.70;0.82;;;;;;;9.81;100.00;99977.97;7397026;19;19929;-78
2024/01/22 06:52:47;;;;;;;2.58;0.70;;;;;;;9.85;100.00;99973.03;7396305;19;19915;-79
2024/01/22 06:55:16;;;;;;;1.75;0.70;;;;;;;9.91;100.00;99989.25;7398484;19;20340;-78
2024/01/22 06:57:45;;;;;;;1.52;0.60;;;;;;;9.95;100.00;99977.06;7396599;19;19922;-78
2024/01/22 07:00:15;;;;;;;2.50;0.60;;;;;;;10.11;100.00;100051.28;7398357;19;19922;-78
2024/01/22 07:02:45;;;;;;;1.60;0.50;;;;;;;10.24;100.00;99965.28;7396237;19;19927;-78
2024/01/22 07:05:16;;;;;;;3.88;0.60;;;;;;;10.30;100.00;99980.66;7395599;19;19934;-77
2024/01/22 07:07:46;;;;;;;2.70;0.77;;;;;;;10.33;100.00;99991.03;7393879;19;19919;-81
2024/01/22 07:10:15;;;;;;;5.15;0.73;;;;;;;10.37;100.00;99991.47;7397472;19;19926;-77
2024/01/22 07:12:43;;;;;;;1.48;0.52;;;;;;;10.38;100.00;100026.28;7393444;19;19919;-74
2024/01/22 07:15:13;;;;;;;1.58;0.70;;;;;;;10.39;100.00;100027.13;7395715;19;19923;-74
2024/01/22 07:17:42;;;;;;;0.73;0.47;;;;;;;10.40;100.00;100008.06;7395599;19;19922;-74
2024/01/22 07:20:14;;;;;;;2.75;0.70;;;;;;;10.41;100.00;100006.19;7395573;19;20557;-76
2024/01/22 07:22:46;;;;;;;3.40;0.80;;;;;;;10.37;100.00;100002.25;7395182;19;19919;-76
2024/01/22 07:25:15;;;;;;;4.43;1.00;;;;;;;10.36;100.00;100003.25;7391930;19;20570;-76
2024/01/22 07:27:44;;;;;;;7.53;1.88;;;;;;;10.36;100.00;100000.56;7394956;19;19940;-77
2024/01/22 07:30:14;;;;;;;3.40;1.08;;;;;;;10.34;100.00;100018.78;7396339;19;19922;-76
2024/01/22 07:32:45;;;;;;;3.40;1.50;;;;;;;10.35;100.00;100021.31;7394651;19;19922;-77
2024/01/22 07:35:15;;;;;;;5.70;1.60;;;;;;;10.32;100.00;100015.44;7395898;19;20244;-76
2024/01/22 07:37:47;;;;;;;4.38;1.35;;;;;;;10.29;100.00;100042.78;7393553;19;19926;-76
2024/01/22 07:40:18;;;;;;;6.57;1.60;;;;;;;10.27;100.00;100071.72;7396692;19;19923;-76
2024/01/22 07:42:47;;;;;;;5.55;1.40;;;;;;;10.27;100.00;100059.09;7395478;19;19930;-76
2024/01/22 07:45:16;;;;;;;7.75;2.08;;;;;;;10.27;100.00;100072.56;7393812;19;19927;-76
2024/01/22 07:47:45;;;;;;;5.22;1.38;;;;;;;10.31;100.00;100041.53;7395033;19;20573;-77
2024/01/22 07:50:14;;;;;;;11.70;1.52;;;;;;;10.35;100.00;100075.16;7392612;19;19922;-77
2024/01/22 07:52:46;;;;;;;7.97;1.70;;;;;;;10.35;100.00;100064.38;7394444;19;20086;-76
2024/01/22 07:55:17;;;;;;;12.20;1.63;;;;;;;10.34;100.00;100064.56;7394117;19;19918;-77
2024/01/22 07:57:46;;;;;;;7.05;1.35;;;;;;;10.30;100.00;100080.28;7393434;19;19930;-76
2024/01/22 08:00:17;;;;;;;5.60;1.70;;;;;;;10.25;100.00;100052.25;7395583;19;19930;-77
2024/01/22 08:02:47;;;;;;;6.82;1.48;;;;;;;10.21;100.00;100077.91;7393956;19;19925;-76
2024/01/22 08:05:16;;;;;;;8.82;1.90;;;;;;;10.18;100.00;100068.34;7395672;19;20261;-77
2024/01/22 08:07:48;;;;;;;9.90;2.20;;;;;;;10.16;100.00;100059.66;7394230;19;19937;-77
2024/01/22 08:10:18;;;;;;;;;;;;;;;10.08;100.00;100062.44;7398871;19;19918;-77
2024/01/22 08:12:47;;;;;;;8.07;1.73;;;;;;;10.08;100.00;100080.44;7395056;19;19918;-77
2024/01/22 08:15:17;;;;;;;5.85;1.63;;;;;;;10.09;100.00;100088.34;7393415;19;20340;-77
2024/01/22 08:17:46;;;;;;;9.93;2.47;;;;;;;10.10;100.00;100081.06;7394908;19;19937;-77
2024/01/22 08:20:16;;;;;;;10.52;1.85;;;;;;;10.11;100.00;100098.91;7393557;19;19934;-76
2024/01/22 08:22:49;;;;;;;11.88;2.30;;;;;;;10.09;100.00;100095.56;7393536;19;19926;-77
2024/01/22 08:25:27;;;;;;;10.15;2.63;;;;;;;10.06;100.00;100093.25;7394431;19;19929;-76
2024/01/22 08:27:56;;;;;;;;;;;;;;;10.02;100.00;100095.50;7397186;19;19930;-76
2024/01/22 08:30:26;;;;;;;11.45;2.05;;;;;;;10.04;100.00;100106.91;7393653;19;19937;-76
2024/01/22 08:32:56;;;;;;;9.45;1.80;;;;;;;10.05;100.00;100140.03;7391986;19;20395;-77
2024/01/22 08:35:26;;;;;;;11.43;2.30;;;;;;;10.06;100.00;100136.31;7395075;19;19929;-76
2024/01/22 08:37:58;;;;;;;12.05;3.22;;;;;;;10.03;100.00;100133.00;7393083;19;20252;-77
2024/01/22 08:40:27;;;;;;;;;;;;;;;9.97;100.00;100131.06;7396303;19;20290;-77
2024/01/22 08:42:58;;;;;;;12.38;2.20;;;;;;;9.96;100.00;100128.56;7392410;19;19923;-77
2024/01/22 08:45:27;;;;;;;9.77;2.42;;;;;;;9.91;100.00;100129.13;7393342;19;20521;-77
2024/01/22 08:47:56;;;;;;;14.50;2.40;;;;;;;9.90;100.00;100151.69;7390640;19;20395;-77
2024/01/22 08:50:26;;;;;;;17.83;3.55;;;;;;;9.90;100.00;100151.69;7400500;19;19925;-77
2024/01/22 08:52:58;;;;;;;9.55;1.65;;;;;;;9.91;100.00;100166.81;7399873;19;19929;-76
2024/01/22 08:55:28;;;;;;;10.55;2.45;;;;;;;9.89;100.00;100174.22;7401113;19;19926;-77
2024/01/22 08:57:58;;;;;;;10.18;2.10;;;;;;;9.87;100.00;100221.19;7399767;19;19925;-77
2024/01/22 09:00:27;;;;;;;10.00;2.25;;;;;;;9.81;100.00;100241.59;7400803;19;20314;-77
2024/01/22 09:02:57;;;;;;;8.02;1.58;;;;;;;9.75;100.00;100225.38;7396485;19;19926;-77
2024/01/22 09:05:26;;;;;;;10.57;2.40;;;;;;;9.72;100.00;100223.88;7401737;19;19929;-77
2024/01/22 09:07:58;;;;;;;9.00;1.70;;;;;;;9.67;100.00;100234.34;7399012;19;19922;-78
2024/01/22 09:10:27;;;;;;;;;;;;;;;9.57;100.00;100220.38;7403890;19;20344;-77
2024/01/22 09:12:57;;;;;;;8.38;1.63;;;;;;;9.53;100.00;100227.97;7399219;19;19922;-78
2024/01/22 09:15:26;;;;;;;14.07;2.08;;;;;;;9.49;100.00;100232.03;7398659;19;19915;-77
2024/01/22 09:17:56;;;;;;;9.48;2.38;;;;;;;9.45;100.00;100243.34;7399402;19;19933;-77
2024/01/22 09:20:25;;;;;;;14.27;2.20;;;;;;;9.44;100.00;100223.72;7398523;19;19914;-77
2024/01/22 09:22:57;;;;;;;15.35;3.20;;;;;;;9.47;100.00;100235.94;7400480;19;19929;-76
2024/01/22 09:25:27;;;;;;;10.15;2.00;;;;;;;9.48;100.00;100225.03;7396956;19;19954;-77
2024/01/22 09:27:56;;;;;;;13.02;2.42;;;;;;;9.50;100.00;100240.94;7400785;19;19918;-76
2024/01/22 09:30:29;;;;;;;15.30;3.70;;;;;;;9.52;100.00;100247.00;7399696;19;20498;-76
2024/01/22 09:32:59;;;;;;;17.05;3.42;;;;;;;9.55;100.00;100250.13;7399283;19;19929;-77
2024/01/22 09:35:28;;;;;;;19.77;2.58;;;;;;;9.56;100.00;100276.00;7399800;19;20267;-77
2024/01/22 09:38:01;;;;;;;20.83;3.00;;;;;;;9.58;100.00;100268.59;7399687;19;19918;-77
2024/01/22 09:40:34;;;;;;;19.83;3.45;;;;;;;9.67;100.00;100261.25;7398492;19;20355;-76
2024/01/22 09:43:06;;;;;;;22.30;3.03;;;;;;;9.68;100.00;100257.56;7399158;19;19922;-76
2024/01/22 09:45:36;;;;;;;19.33;3.72;;;;;;;9.71;100.00;100265.25;7400628;19;19918;-77
2024/01/22 09:48:06;;;;;;;25.42;3.25;;;;;;;9.74;100.00;100275.66;7397917;19;19925;-77
2024/01/22 09:50:36;;;;;;;20.13;3.53;;;;;;;9.77;100.00;100269.88;7400030;19;19922;-77
2024/01/22 09:53:11;;;;;;;23.67;4.25;;;;;;;9.79;100.00;100310.06;7398126;19;19922;-76
2024/01/22 09:55:42;;;;;;;22.20;4.15;;;;;;;9.76;100.00;100281.66;7400655;19;19923;-76
2024/01/22 09:58:12;;;;;;;18.80;3.42;;;;;;;9.78;100.00;100303.84;7398338;19;19933;-77
2024/01/22 10:00:42;;;;;;;23.23;4.55;;;;;;;9.82;100.00;100283.63;7398609;19;19933;-78
2024/01/22 10:03:12;;;;;;;22.75;4.10;;;;;;;9.81;100.00;100281.09;7398008;19;19934;-77
2024/01/22 10:05:42;;;;;;;28.88;4.00;;;;;;;9.83;100.00;100282.59;7400093;19;19934;-77
2024/01/22 10:08:14;;;;;;;21.20;3.38;;;;;;;9.86;100.00;100301.06;7399908;19;19929;-76
2024/01/22 10:10:43;;;;;;;;;;;;;;;9.82;100.00;100290.84;7400203;19;19922;-77
2024/01/22 10:13:14;;;;;;;21.67;2.95;;;;;;;9.88;100.00;100292.81;7397775;19;19922;-76
2024/01/22 10:15:43;;;;;;;18.33;3.78;;;;;;;9.85;100.00;100298.53;7397156;19;20359;-77
2024/01/22 10:18:15;;;;;;;24.88;3.83;;;;;;;9.85;100.00;100280.53;7399727;19;19922;-77
2024/01/22 10:20:46;;;;;;;20.85;3.53;;;;;;;9.92;100.00;100294.09;7399037;19;19928;-76
2024/01/22 10:23:18;;;;;;;22.27;3.45;;;;;;;9.93;100.00;100299.28;7398732;19;19929;-76
2024/01/22 10:25:48;;;;;;;15.27;3.45;;;;;;;9.97;100.00;100315.88;7399822;19;19929;-76
2024/01/22 10:28:21;;;;;;;22.77;3.38;;;;;;;10.02;100.00;100300.00;7398134;19;19933;-77
2024/01/22 10:31:05;;;;;;;21.15;3.95;;;;;;;10.05;100.00;100314.97;7399831;19;19922;-77
2024/01/22 10:33:35;;;;;;;21.17;4.15;;;;;;;10.03;100.00;100321.38;7398015;19;19918;-77
2024/01/22 10:36:18;;;;;;;11.65;3.28;;;;;;;9.97;100.00;100329.31;7398991;19;19921;-77
2024/01/22 10:38:50;;;;;;;19.98;3.30;;;;;;;9.93;100.00;100334.25;7398398;19;19922;-77
2024/01/22 10:41:21;;;;;;;23.05;3.83;;;;;;;9.85;100.00;100337.03;7398690;19;19915;-77
2024/01/22 10:43:52;;;;;;;20.48;3.70;;;;;;;9.80;100.00;100330.53;7398592;19;19929;-77
2024/01/22 10:46:22;;;;;;;20.10;4.25;;;;;;;9.73;100.00;100354.66;7396883;19;19926;-78
2024/01/22 10:48:54;;;;;;;21.10;4.47;;;;;;;9.67;100.00;100358.06;7390231;19;19919;-76
2024/01/22 10:51:25;;;;;;;12.27;3.22;;;;;;;9.67;100.00;100346.47;7396258;19;20498;-75
2024/01/22 10:53:58;;;;;;;17.42;3.35;;;;;;;9.72;100.00;100349.47;7397540;19;19922;-81
2024/01/22 10:56:34;;;;;;;18.45;3.20;;;;;;;9.77;100.00;100353.28;7387557;19;19919;-77
2024/01/22 10:59:14;;;;;;;17.15;2.97;;;;;;;9.82;100.00;100350.88;7397994;19;19919;-78
2024/01/22 11:01:44;;;;;;;15.45;3.28;;;;;;;9.87;100.00;100356.53;7383631;19;20717;-77
2024/01/22 11:04:15;;;;;;;12.50;2.53;;;;;;;9.98;100.00;100347.16;7395527;19;19914;-77
2024/01/22 11:06:45;;;;;;;15.70;2.95;;;;;;;10.02;100.00;100348.44;7392549;19;19933;-77
2024/01/22 11:09:19;;;;;;;15.18;2.58;;;;;;;10.08;100.00;100368.41;7395093;19;19925;-79
2024/01/22 11:11:52;;;;;;;18.25;3.47;;;;;;;10.14;100.00;100360.41;7398802;19;19934;-76
2024/01/22 11:14:22;;;;;;;14.38;3.33;;;;;;;10.23;100.00;100362.00;7397883;19;19930;-77
2024/01/22 11:16:51;;;;;;;14.10;3.33;;;;;;;10.08;100.00;100363.03;7397055;19;19945;-78
2024/01/22 11:19:23;;;;;;;13.32;2.53;;;;;;;9.95;100.00;100355.59;7395001;19;19922;-80
2024/01/22 11:21:54;;;;;;;17.95;2.95;;;;;;;9.85;100.00;100379.25;7393154;19;19918;-76
2024/01/22 11:24:26;;;;;;;18.95;2.58;;;;;;;9.81;100.00;100362.66;7396351;19;20279;-78
2024/01/22 11:27:07;;;;;;;16.98;2.53;;;;;;;9.77;100.00;100355.97;7397442;19;19925;-77
2024/01/22 11:29:36;;;;;;;21.17;3.72;;;;;;;9.93;100.00;100363.84;7397246;19;19952;-77
2024/01/22 11:32:30;;;;;;;22.02;4.18;;;;;;;10.10;100.00;100366.34;7396311;19;20287;-75
2024/01/22 11:35:00;;;;;;;16.10;3.00;;;;;;;10.09;100.00;100362.84;7395536;19;19922;-78
2024/01/22 11:37:37;;;;;;;14.50;2.22;;;;;;;10.02;100.00;100373.50;7394496;19;19921;-76